createdAt,value
2022-10-28T00:01:30.255Z,14.24
2022-10-28T00:04:01.144Z,14.23
2022-10-28T00:06:35.787Z,14.21
2022-10-28T00:09:08.139Z,14.20
2022-10-28T00:11:39.583Z,14.18
2022-10-28T00:14:08.784Z,14.16
2022-10-28T00:16:38.473Z,14.16
2022-10-28T00:19:08.913Z,14.15
2022-10-28T00:21:40.573Z,14.14
2022-10-28T00:24:11.203Z,14.11
2022-10-28T00:26:42.251Z,14.11
2022-10-28T00:29:13.331Z,14.09
2022-10-28T00:31:42.353Z,14.07
2022-10-28T00:34:15.302Z,14.05
2022-10-28T00:36:47.152Z,14.02
2022-10-28T00:39:17.621Z,14.01
2022-10-28T00:41:48.738Z,14.01
2022-10-28T00:44:54.373Z,13.97
2022-10-28T00:47:34.681Z,13.94
2022-10-28T00:50:37.013Z,13.90
2022-10-28T00:53:12.733Z,13.88
2022-10-28T00:55:41.417Z,13.87
2022-10-28T00:58:10.518Z,13.86
2022-10-28T01:00:38.885Z,13.86
2022-10-28T01:03:07.163Z,13.86
2022-10-28T01:05:38.836Z,13.85
2022-10-28T01:08:08.696Z,13.83
2022-10-28T01:11:05.073Z,13.80
2022-10-28T01:13:45.487Z,13.77
2022-10-28T01:16:29.509Z,13.76
2022-10-28T01:19:15.846Z,13.73
2022-10-28T01:22:05.761Z,13.69
2022-10-28T01:25:12.478Z,13.67
2022-10-28T01:28:21.919Z,13.63
2022-10-28T01:31:25.709Z,13.59
2022-10-28T01:34:00.425Z,13.57
2022-10-28T01:36:35.689Z,13.56
2022-10-28T01:39:15.069Z,13.56
2022-10-28T01:41:53.047Z,13.54
2022-10-28T01:44:30.073Z,13.52
2022-10-28T01:47:05.519Z,13.51
2022-10-28T01:49:42.385Z,13.49
2022-10-28T01:52:15.258Z,13.47
2022-10-28T01:54:49.151Z,13.45
2022-10-28T01:57:19.548Z,13.45
2022-10-28T01:59:49.770Z,13.44
2022-10-28T02:02:19.741Z,13.41
2022-10-28T02:04:47.990Z,13.41
2022-10-28T02:07:17.711Z,13.38
2022-10-28T02:10:04.919Z,13.34
2022-10-28T02:12:36.142Z,13.35
2022-10-28T02:15:38.175Z,13.32
2022-10-28T02:18:25.026Z,13.29
2022-10-28T02:20:57.052Z,13.27
2022-10-28T02:23:40.587Z,13.25
2022-10-28T02:26:16.618Z,13.25
2022-10-28T02:28:56.287Z,13.23
2022-10-28T02:31:29.348Z,13.21
2022-10-28T02:34:02.798Z,13.21
2022-10-28T02:36:36.932Z,13.19
2022-10-28T02:39:07.287Z,13.18
2022-10-28T02:41:42.762Z,13.14
2022-10-28T02:44:15.935Z,13.13
2022-10-28T02:46:48.936Z,13.11
2022-10-28T02:49:18.473Z,13.09
2022-10-28T02:51:52.336Z,13.07
2022-10-28T02:54:25.886Z,13.05
2022-10-28T02:57:00.410Z,13.04
2022-10-28T02:59:30.622Z,13.03
2022-10-28T03:01:58.970Z,13.02
2022-10-28T03:04:28.691Z,13.01
2022-10-28T03:06:56.908Z,12.99
2022-10-28T03:09:25.290Z,12.97
2022-10-28T03:11:53.529Z,12.97
2022-10-28T03:14:21.709Z,12.96
2022-10-28T03:16:49.925Z,12.95
2022-10-28T03:19:18.116Z,12.93
2022-10-28T03:21:47.759Z,12.92
2022-10-28T03:24:15.933Z,12.91
2022-10-28T03:26:44.289Z,12.89
2022-10-28T03:29:12.492Z,12.87
2022-10-28T03:31:40.774Z,12.84
2022-10-28T03:34:08.970Z,12.84
2022-10-28T03:36:37.293Z,12.83
2022-10-28T03:39:06.958Z,12.81
2022-10-28T03:41:35.282Z,12.81
2022-10-28T03:44:03.527Z,12.80
2022-10-28T03:46:35.062Z,12.79
2022-10-28T03:49:04.959Z,12.75
2022-10-28T03:51:33.201Z,12.74
2022-10-28T03:54:01.552Z,12.72
2022-10-28T03:56:31.113Z,12.71
2022-10-28T03:58:59.338Z,12.70
2022-10-28T04:01:27.715Z,12.69
2022-10-28T04:03:56.003Z,12.68
2022-10-28T04:06:24.580Z,12.68
2022-10-28T04:08:52.801Z,12.67
2022-10-28T04:11:21.077Z,12.65
2022-10-28T04:13:50.653Z,12.64
2022-10-28T04:16:18.908Z,12.65
2022-10-28T04:18:47.101Z,12.62
2022-10-28T04:21:15.354Z,12.62
2022-10-28T04:23:43.583Z,12.60
2022-10-28T04:26:11.960Z,12.59
2022-10-28T04:28:40.177Z,12.59
2022-10-28T04:31:10.141Z,12.57
2022-10-28T04:33:38.358Z,12.56
2022-10-28T04:36:07.235Z,12.56
2022-10-28T04:38:35.470Z,12.55
2022-10-28T04:41:03.873Z,12.54
2022-10-28T04:43:32.117Z,12.54
2022-10-28T04:46:05.839Z,12.52
2022-10-28T04:48:36.265Z,12.51
2022-10-28T04:51:05.246Z,12.50
2022-10-28T04:53:33.487Z,12.49
2022-10-28T04:56:01.957Z,12.49
2022-10-28T04:58:30.490Z,12.48
2022-10-28T05:00:58.874Z,12.48
2022-10-28T05:03:27.106Z,12.49
2022-10-28T05:05:56.691Z,12.49
2022-10-28T05:08:24.993Z,12.49
2022-10-28T05:10:53.208Z,12.47
2022-10-28T05:13:21.881Z,12.46
2022-10-28T05:15:51.585Z,12.44
2022-10-28T05:18:19.850Z,12.44
2022-10-28T05:20:52.754Z,12.43
2022-10-28T05:23:25.768Z,12.41
2022-10-28T05:25:55.506Z,12.43
2022-10-28T05:28:23.747Z,12.42
2022-10-28T05:30:51.954Z,12.42
2022-10-28T05:33:20.190Z,12.42
2022-10-28T05:35:48.427Z,12.41
2022-10-28T05:38:16.923Z,12.40
2022-10-28T05:40:46.570Z,12.39
2022-10-28T05:43:14.814Z,12.37
2022-10-28T05:45:43.123Z,12.39
2022-10-28T05:48:11.357Z,12.39
2022-10-28T05:50:39.617Z,12.39
2022-10-28T05:53:07.833Z,12.41
2022-10-28T05:55:36.125Z,12.40
2022-10-28T05:58:05.730Z,12.39
2022-10-28T06:00:34.212Z,12.40
2022-10-28T06:03:09.305Z,12.39
2022-10-28T06:05:37.953Z,12.41
2022-10-28T06:08:07.022Z,12.41
2022-10-28T06:10:35.763Z,12.41
2022-10-28T06:13:04.160Z,12.42
2022-10-28T06:15:32.523Z,12.42
2022-10-28T06:18:00.800Z,12.42
2022-10-28T06:20:29.035Z,12.43
2022-10-28T06:22:57.359Z,12.45
2022-10-28T06:25:26.995Z,12.45
2022-10-28T06:27:56.578Z,12.45
2022-10-28T06:30:28.967Z,12.44
2022-10-28T06:32:57.445Z,12.49
2022-10-28T06:35:25.841Z,12.52
2022-10-28T06:37:55.252Z,12.54
2022-10-28T06:40:24.921Z,12.57
2022-10-28T06:42:58.212Z,12.61
2022-10-28T06:45:28.607Z,12.66
2022-10-28T06:47:59.096Z,12.70
2022-10-28T06:50:28.039Z,12.73
2022-10-28T06:52:58.119Z,12.81
2022-10-28T06:55:26.758Z,12.86
2022-10-28T06:57:55.766Z,12.93
2022-10-28T07:00:24.436Z,12.99
2022-10-28T07:02:55.544Z,13.05
2022-10-28T07:05:26.820Z,13.10
2022-10-28T07:07:55.418Z,13.15
2022-10-28T07:10:24.178Z,13.27
2022-10-28T07:12:54.561Z,13.35
2022-10-28T07:15:23.147Z,13.45
2022-10-28T07:17:55.738Z,13.57
2022-10-28T07:20:26.362Z,13.68
2022-10-28T07:22:58.038Z,13.80
2022-10-28T07:25:26.584Z,13.93
2022-10-28T07:27:55.324Z,14.04
2022-10-28T07:30:24.149Z,14.16
2022-10-28T07:32:54.208Z,14.25
2022-10-28T07:35:22.724Z,14.37
2022-10-28T07:37:51.027Z,14.51
2022-10-28T07:40:19.469Z,14.63
2022-10-28T07:42:47.757Z,14.77
2022-10-28T07:45:17.494Z,14.89
2022-10-28T07:47:45.913Z,15.08
2022-10-28T07:50:15.638Z,15.24
2022-10-28T07:52:44.488Z,15.38
2022-10-28T07:55:13.389Z,15.49
2022-10-28T07:57:41.584Z,15.66
2022-10-28T08:00:11.267Z,15.80
2022-10-28T08:02:40.382Z,15.98
2022-10-28T08:05:09.576Z,16.14
2022-10-28T08:07:39.254Z,16.32
2022-10-28T08:10:08.655Z,16.52
2022-10-28T08:12:36.943Z,16.68
2022-10-28T08:15:06.567Z,16.86
2022-10-28T08:17:34.846Z,17.05
2022-10-28T08:20:03.145Z,17.22
2022-10-28T08:22:31.453Z,17.42
2022-10-28T08:25:01.155Z,17.64
2022-10-28T08:27:29.348Z,17.85
2022-10-28T08:29:57.611Z,18.03
2022-10-28T08:32:25.962Z,18.15
2022-10-28T08:34:54.198Z,18.33
2022-10-28T08:37:22.550Z,18.45
2022-10-28T08:39:50.909Z,18.57
2022-10-28T08:42:36.316Z,18.67
2022-10-28T08:45:27.072Z,18.76
2022-10-28T08:48:15.964Z,18.83
2022-10-28T08:50:50.455Z,18.92
2022-10-28T08:53:22.834Z,18.98
2022-10-28T08:55:53.790Z,19.03
2022-10-28T08:58:27.580Z,19.07
2022-10-28T09:00:59.938Z,19.13
2022-10-28T09:03:34.316Z,19.18
2022-10-28T09:06:07.554Z,19.32
2022-10-28T09:08:38.827Z,19.44
2022-10-28T09:12:03.283Z,19.58
2022-10-28T09:14:49.061Z,19.76
2022-10-28T09:17:21.111Z,19.94
2022-10-28T09:19:52.752Z,20.14
2022-10-28T09:22:26.914Z,20.36
2022-10-28T09:24:57.778Z,20.58
2022-10-28T09:27:47.392Z,20.78
2022-10-28T09:30:33.855Z,21.00
2022-10-28T09:33:12.832Z,21.19
2022-10-28T09:35:45.026Z,21.39
2022-10-28T09:38:22.062Z,21.57
2022-10-28T09:40:57.432Z,21.71
2022-10-28T09:43:31.302Z,21.86
2022-10-28T09:46:07.444Z,22.02
2022-10-28T09:48:39.580Z,22.23
2022-10-28T09:51:11.533Z,22.41
2022-10-28T09:53:47.735Z,22.61
2022-10-28T09:56:16.723Z,22.78
2022-10-28T09:58:48.669Z,22.94
2022-10-28T10:01:19.556Z,23.09
2022-10-28T10:03:50.698Z,23.23
2022-10-28T10:06:25.194Z,23.36
2022-10-28T10:08:55.968Z,23.44
2022-10-28T10:11:32.642Z,23.52
2022-10-28T10:14:08.707Z,23.56
2022-10-28T10:16:44.781Z,23.60
2022-10-28T10:19:13.334Z,23.63
2022-10-28T10:21:44.853Z,23.64
2022-10-28T10:24:30.956Z,23.63
2022-10-28T10:27:02.030Z,23.63
2022-10-28T10:29:32.232Z,23.64
2022-10-28T10:32:17.216Z,23.62
2022-10-28T10:34:57.931Z,23.59
2022-10-28T10:37:26.331Z,23.59
2022-10-28T10:40:06.013Z,23.54
2022-10-28T10:42:42.525Z,23.50
2022-10-28T10:45:26.722Z,23.42
2022-10-28T10:48:15.257Z,23.39
2022-10-28T10:50:45.721Z,23.35
2022-10-28T10:53:26.547Z,23.29
2022-10-28T10:56:01.322Z,23.24
2022-10-28T10:58:33.589Z,23.21
2022-10-28T11:01:05.307Z,23.19
2022-10-28T11:03:38.873Z,23.15
2022-10-28T11:06:22.954Z,23.13
2022-10-28T11:08:58.765Z,23.08
2022-10-28T11:11:34.798Z,23.06
2022-10-28T11:14:18.257Z,23.03
2022-10-28T11:16:51.685Z,22.98
2022-10-28T11:19:25.478Z,22.96
2022-10-28T11:22:13.075Z,22.93
2022-10-28T11:25:16.580Z,22.91
2022-10-28T11:28:01.576Z,22.88
2022-10-28T11:30:44.733Z,22.89
2022-10-28T11:33:34.065Z,22.92
2022-10-28T11:36:17.013Z,22.96
2022-10-28T11:39:19.972Z,23.04
2022-10-28T11:42:05.214Z,23.12
2022-10-28T11:44:46.702Z,23.22
2022-10-28T11:47:44.597Z,23.29
2022-10-28T11:50:36.882Z,23.34
2022-10-28T11:53:37.211Z,23.42
2022-10-28T11:56:14.085Z,23.47
2022-10-28T11:58:50.593Z,23.48
2022-10-28T12:01:40.964Z,23.53
2022-10-28T12:04:32.191Z,23.55
2022-10-28T12:07:22.055Z,23.60
2022-10-28T12:10:20.409Z,23.66
2022-10-28T12:13:00.593Z,23.71
2022-10-28T12:15:46.304Z,23.76
2022-10-28T12:18:25.285Z,23.82
2022-10-28T12:21:00.838Z,23.89
2022-10-28T12:23:31.058Z,23.97
2022-10-28T12:26:02.002Z,24.06
2022-10-28T12:28:35.291Z,24.17
2022-10-28T12:31:04.872Z,24.28
2022-10-28T12:33:41.887Z,24.39
2022-10-28T12:36:28.220Z,24.52
2022-10-28T12:39:02.256Z,24.64
2022-10-28T12:41:51.654Z,24.78
2022-10-28T12:44:22.747Z,24.91
2022-10-28T12:47:04.390Z,25.02
2022-10-28T12:49:45.252Z,25.16
2022-10-28T12:52:25.514Z,25.26
2022-10-28T12:55:03.225Z,25.34
2022-10-28T12:57:36.188Z,25.43
2022-10-28T13:00:11.107Z,25.48
2022-10-28T13:02:44.978Z,25.49
2022-10-28T13:05:30.537Z,25.45
2022-10-28T13:12:26.108Z,25.31
2022-10-28T13:15:40.252Z,25.22
2022-10-28T13:18:46.026Z,25.14
2022-10-28T13:21:26.222Z,25.06
2022-10-28T13:24:00.088Z,25.02
2022-10-28T13:26:31.629Z,24.97
2022-10-28T13:29:02.737Z,24.93
2022-10-28T13:31:42.196Z,24.86
2022-10-28T13:34:12.798Z,24.83
2022-10-28T13:36:43.372Z,24.78
2022-10-28T13:39:26.458Z,24.70
2022-10-28T13:42:45.947Z,24.63
2022-10-28T13:45:50.153Z,24.55
2022-10-28T13:48:48.018Z,24.50
2022-10-28T13:51:46.422Z,24.45
2022-10-28T13:54:29.963Z,24.40
2022-10-28T13:57:06.371Z,24.36
2022-10-28T13:59:53.597Z,24.29
2022-10-28T14:02:36.263Z,24.23
2022-10-28T14:05:10.064Z,24.17
2022-10-28T14:07:41.933Z,24.12
2022-10-28T14:10:22.773Z,24.07
2022-10-28T14:12:56.068Z,24.00
2022-10-28T14:15:28.294Z,23.97
2022-10-28T14:18:10.492Z,23.91
2022-10-28T14:21:01.678Z,23.86
2022-10-28T14:24:10.668Z,23.78
2022-10-28T14:27:42.579Z,23.70
2022-10-28T14:30:23.578Z,23.65
2022-10-28T14:33:01.877Z,23.60
2022-10-28T14:35:40.750Z,23.57
2022-10-28T14:39:07.436Z,23.52
2022-10-28T14:41:52.969Z,23.47
2022-10-28T14:44:47.582Z,23.43
2022-10-28T14:47:42.680Z,23.38
2022-10-28T14:50:20.879Z,23.36
2022-10-28T14:52:50.998Z,23.31
2022-10-28T14:55:26.434Z,23.27
2022-10-28T14:57:56.439Z,23.23
2022-10-28T15:00:28.984Z,23.19
2022-10-28T15:02:57.331Z,23.16
2022-10-28T15:05:32.795Z,23.10
2022-10-28T15:08:04.642Z,23.06
2022-10-28T15:10:35.289Z,23.01
2022-10-28T15:13:04.995Z,22.96
2022-10-28T15:15:35.802Z,22.91
2022-10-28T15:18:18.509Z,22.86
2022-10-28T15:20:46.791Z,22.78
2022-10-28T15:23:19.799Z,22.73
2022-10-28T15:26:06.202Z,22.66
2022-10-28T15:28:35.953Z,22.62
2022-10-28T15:31:04.198Z,22.58
2022-10-28T15:33:34.242Z,22.54
2022-10-28T15:36:17.987Z,22.48
2022-10-28T15:38:47.950Z,22.42
2022-10-28T15:41:42.611Z,22.35
2022-10-28T15:44:28.405Z,22.29
2022-10-28T15:46:58.442Z,22.23
2022-10-28T15:49:45.424Z,22.17
2022-10-28T15:52:41.387Z,22.07
2022-10-28T15:55:41.335Z,22.00
2022-10-28T15:58:36.754Z,21.92
2022-10-28T16:01:11.837Z,21.89
2022-10-28T16:03:46.115Z,21.83
2022-10-28T16:06:27.653Z,21.79
2022-10-28T16:09:18.771Z,21.73
2022-10-28T16:11:50.333Z,21.68
2022-10-28T16:14:34.917Z,21.62
2022-10-28T16:17:17.252Z,21.56
2022-10-28T16:19:51.873Z,21.51
2022-10-28T16:22:21.017Z,21.49
2022-10-28T16:24:50.166Z,21.47
2022-10-28T16:27:21.130Z,21.41
2022-10-28T16:29:50.417Z,21.39
2022-10-28T16:32:26.903Z,21.34
2022-10-28T16:34:55.209Z,21.32
2022-10-28T16:37:25.892Z,21.28
2022-10-28T16:39:54.547Z,21.24
2022-10-28T16:42:23.798Z,21.20
2022-10-28T16:44:52.486Z,21.15
2022-10-28T16:47:25.611Z,21.11
2022-10-28T16:49:57.666Z,21.06
2022-10-28T16:52:28.378Z,21.02
2022-10-28T16:54:57.311Z,20.98
2022-10-28T16:57:26.105Z,20.93
2022-10-28T16:59:54.699Z,20.89
2022-10-28T17:02:29.751Z,20.85
2022-10-28T17:04:58.822Z,20.80
2022-10-28T17:07:27.964Z,20.76
2022-10-28T17:09:56.949Z,20.73
2022-10-28T17:12:28.310Z,20.68
2022-10-28T17:14:56.598Z,20.64
2022-10-28T17:17:26.343Z,20.62
2022-10-28T17:19:54.601Z,20.60
2022-10-28T17:22:22.970Z,20.55
2022-10-28T17:24:51.281Z,20.51
2022-10-28T17:27:19.553Z,20.44
2022-10-28T17:29:48.063Z,20.43
2022-10-28T17:32:16.621Z,20.39
2022-10-28T17:34:46.324Z,20.36
2022-10-28T17:37:14.541Z,20.32
2022-10-28T17:39:43.380Z,20.28
2022-10-28T17:42:11.729Z,20.26
2022-10-28T17:44:40.029Z,20.21
2022-10-28T17:47:08.346Z,20.16
2022-10-28T17:49:36.684Z,20.15
2022-10-28T17:52:06.370Z,20.12
2022-10-28T17:54:34.636Z,20.10
2022-10-28T17:57:03.012Z,20.06
2022-10-28T17:59:31.363Z,20.04
2022-10-28T18:01:59.716Z,20.00
2022-10-28T18:04:28.059Z,19.98
2022-10-28T18:06:58.492Z,19.93
2022-10-28T18:09:31.678Z,19.87
2022-10-28T18:12:02.014Z,19.86
2022-10-28T18:14:30.778Z,19.83
2022-10-28T18:16:59.078Z,19.80
2022-10-28T18:19:27.427Z,19.76
2022-10-28T18:21:55.692Z,19.73
2022-10-28T18:24:26.017Z,19.70
2022-10-28T18:26:57.887Z,19.67
2022-10-28T18:29:26.601Z,19.63
2022-10-28T18:31:55.141Z,19.58
2022-10-28T18:34:23.846Z,19.54
2022-10-28T18:36:52.784Z,19.51
2022-10-28T18:39:21.131Z,19.45
2022-10-28T18:41:51.310Z,19.40
2022-10-28T18:44:24.208Z,19.33
2022-10-28T18:46:52.538Z,19.27
2022-10-28T18:49:20.865Z,19.21
2022-10-28T18:51:49.196Z,19.17
2022-10-28T18:54:17.699Z,19.11
2022-10-28T18:56:47.958Z,19.06
2022-10-28T18:59:16.604Z,18.98
2022-10-28T19:01:47.178Z,18.97
2022-10-28T19:04:15.930Z,18.91
2022-10-28T19:06:44.224Z,18.86
2022-10-28T19:09:12.493Z,18.82
2022-10-28T19:11:41.023Z,18.78
2022-10-28T19:14:10.497Z,18.74
2022-10-28T19:16:38.772Z,18.72
2022-10-28T19:19:08.521Z,18.67
2022-10-28T19:21:36.984Z,18.61
2022-10-28T19:24:06.316Z,18.57
2022-10-28T19:26:34.982Z,18.53
2022-10-28T19:29:05.537Z,18.50
2022-10-28T19:31:38.740Z,18.45
2022-10-28T19:34:10.773Z,18.41
2022-10-28T19:36:39.664Z,18.39
2022-10-28T19:39:08.026Z,18.35
2022-10-28T19:41:36.392Z,18.30
2022-10-28T19:44:05.766Z,18.27
2022-10-28T19:46:36.320Z,18.22
2022-10-28T19:49:07.884Z,18.18
2022-10-28T19:51:38.515Z,18.15
2022-10-28T19:54:11.240Z,18.10
2022-10-28T19:56:42.723Z,18.05
2022-10-28T19:59:11.281Z,18.03
2022-10-28T20:01:41.512Z,17.98
2022-10-28T20:04:11.593Z,17.96
2022-10-28T20:06:41.718Z,17.91
2022-10-28T20:09:10.509Z,17.89
2022-10-28T20:11:40.233Z,17.86
2022-10-28T20:14:11.893Z,17.82
2022-10-28T20:16:43.222Z,17.80
2022-10-28T20:19:13.618Z,17.77
2022-10-28T20:21:42.052Z,17.74
2022-10-28T20:24:10.463Z,17.71
2022-10-28T20:26:40.053Z,17.67
2022-10-28T20:29:09.927Z,17.64
2022-10-28T20:31:39.834Z,17.59
2022-10-28T20:34:08.820Z,17.59
2022-10-28T20:36:41.039Z,17.57
2022-10-28T20:39:14.457Z,17.54
2022-10-28T20:41:44.580Z,17.53
2022-10-28T20:44:13.013Z,17.51
2022-10-28T20:46:41.843Z,17.49
2022-10-28T20:49:10.669Z,17.48
2022-10-28T20:51:40.592Z,17.45
2022-10-28T20:54:09.153Z,17.43
2022-10-28T20:56:40.276Z,17.39
2022-10-28T20:59:08.910Z,17.39
2022-10-28T21:01:40.016Z,17.36
2022-10-28T21:04:11.365Z,17.34
2022-10-28T21:06:40.987Z,17.31
2022-10-28T21:09:11.715Z,17.29
2022-10-28T21:11:40.145Z,17.27
2022-10-28T21:14:08.725Z,17.24
2022-10-28T21:16:37.150Z,17.19
2022-10-28T21:19:05.484Z,17.19
2022-10-28T21:21:33.754Z,17.15
2022-10-28T21:24:03.747Z,17.11
2022-10-28T21:26:36.929Z,17.08
2022-10-28T21:29:05.431Z,17.07
2022-10-28T21:31:33.738Z,17.02
2022-10-28T21:34:04.503Z,17.00
2022-10-28T21:36:35.807Z,16.97
2022-10-28T21:39:05.539Z,16.95
2022-10-28T21:41:33.852Z,16.93
2022-10-28T21:44:06.859Z,16.89
2022-10-28T21:46:35.140Z,16.85
2022-10-28T21:49:03.474Z,16.82
2022-10-28T21:51:31.749Z,16.81
2022-10-28T21:54:00.053Z,16.78
2022-10-28T21:56:29.746Z,16.77
2022-10-28T21:58:57.989Z,16.77
2022-10-28T22:01:26.305Z,16.76
2022-10-28T22:03:56.662Z,16.76
2022-10-28T22:06:25.089Z,16.75
2022-10-28T22:08:54.597Z,16.73
2022-10-28T22:11:25.055Z,16.74
2022-10-28T22:13:59.817Z,16.74
2022-10-28T22:16:29.749Z,16.74
2022-10-28T22:19:00.257Z,16.73
2022-10-28T22:21:31.330Z,16.74
2022-10-28T22:23:59.733Z,16.75
2022-10-28T22:26:30.567Z,16.75
2022-10-28T22:29:00.503Z,16.75
2022-10-28T22:31:32.208Z,16.73
2022-10-28T22:34:00.710Z,16.76
2022-10-28T22:36:30.713Z,16.77
2022-10-28T22:38:59.487Z,16.77
2022-10-28T22:41:29.914Z,16.77
2022-10-28T22:44:01.600Z,16.77
2022-10-28T22:46:32.320Z,16.78
2022-10-28T22:49:00.976Z,16.78
2022-10-28T22:51:29.256Z,16.79
2022-10-28T22:53:57.766Z,16.79
2022-10-28T22:56:27.820Z,16.79
2022-10-28T22:59:00.737Z,16.78
2022-10-28T23:01:30.339Z,16.79
2022-10-28T23:03:58.718Z,16.76
2022-10-28T23:06:28.816Z,16.75
2022-10-28T23:08:57.709Z,16.75
2022-10-28T23:11:25.972Z,16.74
2022-10-28T23:13:55.916Z,16.73
2022-10-28T23:16:25.983Z,16.72
2022-10-28T23:18:54.353Z,16.73
2022-10-28T23:21:24.539Z,16.71
2022-10-28T23:23:55.351Z,16.70
2022-10-28T23:26:24.543Z,16.73
2022-10-28T23:28:54.605Z,16.71
2022-10-28T23:31:25.381Z,16.72
2022-10-28T23:33:55.082Z,16.70
2022-10-28T23:36:24.130Z,16.70
2022-10-28T23:38:53.928Z,16.69
2022-10-28T23:41:22.159Z,16.68
2022-10-28T23:43:50.619Z,16.68
2022-10-28T23:46:20.460Z,16.67
2022-10-28T23:48:50.078Z,16.68
2022-10-28T23:51:19.268Z,16.68
2022-10-28T23:53:47.516Z,16.67
2022-10-28T23:56:15.759Z,16.68
2022-10-28T23:58:44.032Z,16.66
